sensor_id;sensor_type;location;lat;lon;timestamp;temperature;humidity
71304;DHT22;59091;47.446;19.148;2022-09-17T00:00:55;16.75;76.14
71304;DHT22;59091;47.446;19.148;2022-09-17T00:03:23;16.69;76.12
71304;DHT22;59091;47.446;19.148;2022-09-17T00:05:49;16.69;76.09
71304;DHT22;59091;47.446;19.148;2022-09-17T00:08:14;16.72;76.35
71304;DHT22;59091;47.446;19.148;2022-09-17T00:10:41;16.69;76.40
71304;DHT22;59091;47.446;19.148;2022-09-17T00:13:08;16.76;76.57
71304;DHT22;59091;47.446;19.148;2022-09-17T00:15:43;16.65;76.46
71304;DHT22;59091;47.446;19.148;2022-09-17T00:18:09;16.68;76.85
71304;DHT22;59091;47.446;19.148;2022-09-17T00:20:43;16.65;77.07
71304;DHT22;59091;47.446;19.148;2022-09-17T00:23:09;16.53;77.80
71304;DHT22;59091;47.446;19.148;2022-09-17T00:25:39;16.51;77.31
71304;DHT22;59091;47.446;19.148;2022-09-17T00:28:05;16.55;77.61
71304;DHT22;59091;47.446;19.148;2022-09-17T00:30:30;16.58;77.69
71304;DHT22;59091;47.446;19.148;2022-09-17T00:32:55;16.60;77.44
71304;DHT22;59091;47.446;19.148;2022-09-17T00:35:22;16.64;76.69
71304;DHT22;59091;47.446;19.148;2022-09-17T00:37:48;16.64;76.46
71304;DHT22;59091;47.446;19.148;2022-09-17T00:40:13;16.68;76.47
71304;DHT22;59091;47.446;19.148;2022-09-17T00:42:39;16.71;76.39
71304;DHT22;59091;47.446;19.148;2022-09-17T00:45:05;16.48;75.81
71304;DHT22;59091;47.446;19.148;2022-09-17T00:47:41;16.60;75.81
71304;DHT22;59091;47.446;19.148;2022-09-17T00:50:16;16.67;75.92
71304;DHT22;59091;47.446;19.148;2022-09-17T00:52:45;16.69;76.18
71304;DHT22;59091;47.446;19.148;2022-09-17T00:55:34;16.67;75.77
71304;DHT22;59091;47.446;19.148;2022-09-17T00:58:02;16.74;75.77
71304;DHT22;59091;47.446;19.148;2022-09-17T01:00:30;16.76;75.85
71304;DHT22;59091;47.446;19.148;2022-09-17T01:02:56;16.81;75.69
71304;DHT22;59091;47.446;19.148;2022-09-17T01:17:08;16.76;76.23
71304;DHT22;59091;47.446;19.148;2022-09-17T01:20:08;16.74;76.06
71304;DHT22;59091;47.446;19.148;2022-09-17T01:28:23;16.71;75.60
71304;DHT22;59091;47.446;19.148;2022-09-17T01:36:28;16.51;74.79
71304;DHT22;59091;47.446;19.148;2022-09-17T01:47:26;16.10;74.40
71304;DHT22;59091;47.446;19.148;2022-09-17T01:50:09;15.93;74.92
71304;DHT22;59091;47.446;19.148;2022-09-17T01:52:39;15.96;75.03
71304;DHT22;59091;47.446;19.148;2022-09-17T01:55:08;16.02;75.37
71304;DHT22;59091;47.446;19.148;2022-09-17T01:57:40;16.17;75.50
71304;DHT22;59091;47.446;19.148;2022-09-17T02:00:09;16.14;75.07
71304;DHT22;59091;47.446;19.148;2022-09-17T02:05:28;15.99;75.09
71304;DHT22;59091;47.446;19.148;2022-09-17T02:08:19;16.10;74.53
71304;DHT22;59091;47.446;19.148;2022-09-17T02:11:03;15.81;73.32
71304;DHT22;59091;47.446;19.148;2022-09-17T02:13:53;15.83;73.57
71304;DHT22;59091;47.446;19.148;2022-09-17T02:19:03;15.97;73.58
71304;DHT22;59091;47.446;19.148;2022-09-17T02:21:52;15.82;73.35
71304;DHT22;59091;47.446;19.148;2022-09-17T02:24:25;15.65;73.52
71304;DHT22;59091;47.446;19.148;2022-09-17T02:27:02;15.73;73.39
71304;DHT22;59091;47.446;19.148;2022-09-17T02:29:42;15.75;73.31
71304;DHT22;59091;47.446;19.148;2022-09-17T02:32:09;15.69;73.19
71304;DHT22;59091;47.446;19.148;2022-09-17T02:34:35;15.67;72.89
71304;DHT22;59091;47.446;19.148;2022-09-17T02:37:01;15.66;73.08
71304;DHT22;59091;47.446;19.148;2022-09-17T02:39:27;15.45;72.67
71304;DHT22;59091;47.446;19.148;2022-09-17T02:50:05;15.59;72.65
71304;DHT22;59091;47.446;19.148;2022-09-17T02:58:32;15.51;71.80
71304;DHT22;59091;47.446;19.148;2022-09-17T03:01:05;15.52;72.25
71304;DHT22;59091;47.446;19.148;2022-09-17T03:03:36;15.49;71.30
71304;DHT22;59091;47.446;19.148;2022-09-17T03:06:04;15.56;71.77
71304;DHT22;59091;47.446;19.148;2022-09-17T03:08:39;15.51;71.56
71304;DHT22;59091;47.446;19.148;2022-09-17T03:11:06;15.36;71.56
71304;DHT22;59091;47.446;19.148;2022-09-17T03:13:33;15.45;71.41
71304;DHT22;59091;47.446;19.148;2022-09-17T03:16:01;15.46;71.63
71304;DHT22;59091;47.446;19.148;2022-09-17T03:18:27;15.39;71.53
71304;DHT22;59091;47.446;19.148;2022-09-17T03:20:52;15.30;71.27
71304;DHT22;59091;47.446;19.148;2022-09-17T03:23:17;15.18;71.49
71304;DHT22;59091;47.446;19.148;2022-09-17T03:25:44;15.17;71.79
71304;DHT22;59091;47.446;19.148;2022-09-17T03:28:10;15.15;71.25
71304;DHT22;59091;47.446;19.148;2022-09-17T03:30:35;15.21;71.23
71304;DHT22;59091;47.446;19.148;2022-09-17T03:33:01;15.18;71.12
71304;DHT22;59091;47.446;19.148;2022-09-17T03:35:26;15.24;71.13
71304;DHT22;59091;47.446;19.148;2022-09-17T03:37:51;15.32;71.44
71304;DHT22;59091;47.446;19.148;2022-09-17T03:40:17;15.31;70.89
71304;DHT22;59091;47.446;19.148;2022-09-17T03:42:44;15.31;71.20
71304;DHT22;59091;47.446;19.148;2022-09-17T03:45:09;15.21;71.15
71304;DHT22;59091;47.446;19.148;2022-09-17T03:47:36;15.20;71.19
71304;DHT22;59091;47.446;19.148;2022-09-17T03:50:02;15.32;70.93
71304;DHT22;59091;47.446;19.148;2022-09-17T03:52:28;15.34;71.07
71304;DHT22;59091;47.446;19.148;2022-09-17T03:54:53;15.35;71.02
71304;DHT22;59091;47.446;19.148;2022-09-17T03:57:18;15.15;70.45
71304;DHT22;59091;47.446;19.148;2022-09-17T03:59:44;15.05;71.44
71304;DHT22;59091;47.446;19.148;2022-09-17T04:02:09;15.05;71.23
71304;DHT22;59091;47.446;19.148;2022-09-17T04:04:35;15.01;71.53
71304;DHT22;59091;47.446;19.148;2022-09-17T04:07:00;14.95;71.71
71304;DHT22;59091;47.446;19.148;2022-09-17T04:09:26;14.95;72.09
71304;DHT22;59091;47.446;19.148;2022-09-17T04:11:51;15.00;71.69
71304;DHT22;59091;47.446;19.148;2022-09-17T04:14:17;14.91;71.73
71304;DHT22;59091;47.446;19.148;2022-09-17T04:16:42;14.93;71.58
71304;DHT22;59091;47.446;19.148;2022-09-17T04:19:07;14.90;71.69
71304;DHT22;59091;47.446;19.148;2022-09-17T04:21:33;14.79;71.33
71304;DHT22;59091;47.446;19.148;2022-09-17T04:23:58;14.80;71.16
71304;DHT22;59091;47.446;19.148;2022-09-17T04:26:24;14.79;71.36
71304;DHT22;59091;47.446;19.148;2022-09-17T04:28:49;14.81;71.54
71304;DHT22;59091;47.446;19.148;2022-09-17T04:31:15;14.84;71.14
71304;DHT22;59091;47.446;19.148;2022-09-17T04:33:40;14.70;71.02
71304;DHT22;59091;47.446;19.148;2022-09-17T04:36:05;14.63;71.11
71304;DHT22;59091;47.446;19.148;2022-09-17T04:38:31;14.64;71.01
71304;DHT22;59091;47.446;19.148;2022-09-17T04:40:58;14.69;71.23
71304;DHT22;59091;47.446;19.148;2022-09-17T04:43:23;14.69;71.03
71304;DHT22;59091;47.446;19.148;2022-09-17T04:45:48;14.62;71.28
71304;DHT22;59091;47.446;19.148;2022-09-17T04:48:15;14.52;71.39
71304;DHT22;59091;47.446;19.148;2022-09-17T04:50:41;14.56;71.31
71304;DHT22;59091;47.446;19.148;2022-09-17T04:53:06;14.67;71.61
71304;DHT22;59091;47.446;19.148;2022-09-17T04:55:32;14.52;71.83
71304;DHT22;59091;47.446;19.148;2022-09-17T04:57:57;14.60;71.82
71304;DHT22;59091;47.446;19.148;2022-09-17T05:00:23;14.62;71.67
71304;DHT22;59091;47.446;19.148;2022-09-17T05:02:51;14.70;71.62
71304;DHT22;59091;47.446;19.148;2022-09-17T05:05:17;14.81;71.32
71304;DHT22;59091;47.446;19.148;2022-09-17T05:07:44;14.87;71.34
71304;DHT22;59091;47.446;19.148;2022-09-17T05:10:10;14.90;71.42
71304;DHT22;59091;47.446;19.148;2022-09-17T05:12:36;14.74;71.34
71304;DHT22;59091;47.446;19.148;2022-09-17T05:15:03;14.91;71.07
71304;DHT22;59091;47.446;19.148;2022-09-17T05:17:28;14.85;71.11
71304;DHT22;59091;47.446;19.148;2022-09-17T05:19:54;14.93;71.12
71304;DHT22;59091;47.446;19.148;2022-09-17T05:22:19;14.87;71.06
71304;DHT22;59091;47.446;19.148;2022-09-17T05:24:45;14.88;70.88
71304;DHT22;59091;47.446;19.148;2022-09-17T05:27:10;14.81;70.89
71304;DHT22;59091;47.446;19.148;2022-09-17T05:29:36;14.83;71.08
71304;DHT22;59091;47.446;19.148;2022-09-17T05:32:02;14.80;71.17
71304;DHT22;59091;47.446;19.148;2022-09-17T05:34:28;14.88;70.86
71304;DHT22;59091;47.446;19.148;2022-09-17T05:36:53;14.93;70.67
71304;DHT22;59091;47.446;19.148;2022-09-17T05:39:19;15.02;70.35
71304;DHT22;59091;47.446;19.148;2022-09-17T05:41:47;15.11;70.02
71304;DHT22;59091;47.446;19.148;2022-09-17T05:44:12;15.20;69.94
71304;DHT22;59091;47.446;19.148;2022-09-17T05:46:37;15.18;69.62
71304;DHT22;59091;47.446;19.148;2022-09-17T05:49:03;15.18;70.11
71304;DHT22;59091;47.446;19.148;2022-09-17T05:51:29;15.14;70.31
71304;DHT22;59091;47.446;19.148;2022-09-17T05:53:54;15.28;69.94
71304;DHT22;59091;47.446;19.148;2022-09-17T05:56:20;15.24;69.55
71304;DHT22;59091;47.446;19.148;2022-09-17T05:58:46;15.18;69.96
71304;DHT22;59091;47.446;19.148;2022-09-17T06:01:11;15.34;69.56
71304;DHT22;59091;47.446;19.148;2022-09-17T06:03:41;15.38;69.89
71304;DHT22;59091;47.446;19.148;2022-09-17T06:06:07;15.49;69.14
71304;DHT22;59091;47.446;19.148;2022-09-17T06:08:33;15.58;69.22
71304;DHT22;59091;47.446;19.148;2022-09-17T06:11:05;15.70;69.17
71304;DHT22;59091;47.446;19.148;2022-09-17T06:13:32;15.81;69.24
71304;DHT22;59091;47.446;19.148;2022-09-17T06:15:58;15.87;68.98
71304;DHT22;59091;47.446;19.148;2022-09-17T06:18:23;15.94;68.53
71304;DHT22;59091;47.446;19.148;2022-09-17T06:20:56;16.06;68.33
71304;DHT22;59091;47.446;19.148;2022-09-17T06:23:22;16.12;68.73
71304;DHT22;59091;47.446;19.148;2022-09-17T06:25:52;16.20;67.71
71304;DHT22;59091;47.446;19.148;2022-09-17T06:28:18;16.25;67.34
71304;DHT22;59091;47.446;19.148;2022-09-17T06:30:44;16.34;67.75
71304;DHT22;59091;47.446;19.148;2022-09-17T06:33:09;16.40;67.36
71304;DHT22;59091;47.446;19.148;2022-09-17T06:35:34;16.45;66.23
71304;DHT22;59091;47.446;19.148;2022-09-17T06:38:03;16.55;66.15
71304;DHT22;59091;47.446;19.148;2022-09-17T06:40:29;16.55;65.74
71304;DHT22;59091;47.446;19.148;2022-09-17T06:42:59;16.48;65.13
71304;DHT22;59091;47.446;19.148;2022-09-17T06:45:25;16.45;65.07
71304;DHT22;59091;47.446;19.148;2022-09-17T06:47:51;16.44;65.23
71304;DHT22;59091;47.446;19.148;2022-09-17T06:50:16;16.43;65.12
71304;DHT22;59091;47.446;19.148;2022-09-17T06:52:49;16.27;65.39
71304;DHT22;59091;47.446;19.148;2022-09-17T06:55:14;16.33;65.72
71304;DHT22;59091;47.446;19.148;2022-09-17T06:57:40;16.31;65.23
71304;DHT22;59091;47.446;19.148;2022-09-17T07:00:06;16.25;65.12
71304;DHT22;59091;47.446;19.148;2022-09-17T07:02:32;15.94;65.52
71304;DHT22;59091;47.446;19.148;2022-09-17T07:04:58;15.97;65.74
71304;DHT22;59091;47.446;19.148;2022-09-17T07:07:23;15.89;65.98
71304;DHT22;59091;47.446;19.148;2022-09-17T07:09:49;15.92;65.37
71304;DHT22;59091;47.446;19.148;2022-09-17T07:12:14;15.97;65.49
71304;DHT22;59091;47.446;19.148;2022-09-17T07:14:39;16.00;65.04
71304;DHT22;59091;47.446;19.148;2022-09-17T07:17:05;15.87;64.93
71304;DHT22;59091;47.446;19.148;2022-09-17T07:19:31;15.82;65.20
71304;DHT22;59091;47.446;19.148;2022-09-17T07:21:56;15.76;64.90
71304;DHT22;59091;47.446;19.148;2022-09-17T07:24:22;15.85;64.68
71304;DHT22;59091;47.446;19.148;2022-09-17T07:26:48;15.90;64.65
71304;DHT22;59091;47.446;19.148;2022-09-17T07:29:15;16.04;64.36
71304;DHT22;59091;47.446;19.148;2022-09-17T07:31:40;16.09;63.53
71304;DHT22;59091;47.446;19.148;2022-09-17T07:34:11;16.10;63.47
71304;DHT22;59091;47.446;19.148;2022-09-17T07:36:37;16.09;63.63
71304;DHT22;59091;47.446;19.148;2022-09-17T07:39:02;15.96;64.19
71304;DHT22;59091;47.446;19.148;2022-09-17T07:41:27;16.14;63.08
71304;DHT22;59091;47.446;19.148;2022-09-17T07:43:53;16.20;63.35
71304;DHT22;59091;47.446;19.148;2022-09-17T07:46:20;16.23;61.99
71304;DHT22;59091;47.446;19.148;2022-09-17T07:48:47;16.21;62.17
71304;DHT22;59091;47.446;19.148;2022-09-17T07:51:20;16.23;62.10
71304;DHT22;59091;47.446;19.148;2022-09-17T07:53:46;16.40;62.08
71304;DHT22;59091;47.446;19.148;2022-09-17T07:56:12;16.48;61.88
71304;DHT22;59091;47.446;19.148;2022-09-17T07:58:37;16.48;62.37
71304;DHT22;59091;47.446;19.148;2022-09-17T08:01:05;16.53;61.43
71304;DHT22;59091;47.446;19.148;2022-09-17T08:03:31;16.45;61.44
71304;DHT22;59091;47.446;19.148;2022-09-17T08:06:05;16.58;60.95
71304;DHT22;59091;47.446;19.148;2022-09-17T08:08:32;16.44;60.76
71304;DHT22;59091;47.446;19.148;2022-09-17T08:11:12;16.61;59.64
71304;DHT22;59091;47.446;19.148;2022-09-17T08:13:38;16.61;59.62
71304;DHT22;59091;47.446;19.148;2022-09-17T08:16:10;16.74;60.07
71304;DHT22;59091;47.446;19.148;2022-09-17T08:18:38;16.76;59.68
71304;DHT22;59091;47.446;19.148;2022-09-17T08:21:05;16.85;59.24
71304;DHT22;59091;47.446;19.148;2022-09-17T08:23:32;16.69;58.84
71304;DHT22;59091;47.446;19.148;2022-09-17T08:25:58;17.01;58.35
71304;DHT22;59091;47.446;19.148;2022-09-17T08:28:26;17.18;57.95
71304;DHT22;59091;47.446;19.148;2022-09-17T08:30:52;17.18;57.42
71304;DHT22;59091;47.446;19.148;2022-09-17T08:33:18;17.22;58.01
71304;DHT22;59091;47.446;19.148;2022-09-17T08:35:54;17.14;56.86
71304;DHT22;59091;47.446;19.148;2022-09-17T08:38:19;17.29;57.25
71304;DHT22;59091;47.446;19.148;2022-09-17T08:46:17;17.45;55.99
71304;DHT22;59091;47.446;19.148;2022-09-17T08:52:25;17.29;54.65
71304;DHT22;59091;47.446;19.148;2022-09-17T08:55:09;17.39;55.13
71304;DHT22;59091;47.446;19.148;2022-09-17T09:00:26;17.64;56.28
71304;DHT22;59091;47.446;19.148;2022-09-17T09:05:48;17.56;56.15
71304;DHT22;59091;47.446;19.148;2022-09-17T09:08:27;17.39;56.00
71304;DHT22;59091;47.446;19.148;2022-09-17T09:10:58;17.33;56.94
71304;DHT22;59091;47.446;19.148;2022-09-17T09:13:34;17.19;56.11
71304;DHT22;59091;47.446;19.148;2022-09-17T09:16:04;17.23;56.72
71304;DHT22;59091;47.446;19.148;2022-09-17T09:18:35;17.16;56.48
71304;DHT22;59091;47.446;19.148;2022-09-17T09:26:19;17.02;58.57
71304;DHT22;59091;47.446;19.148;2022-09-17T09:34:14;16.82;58.59
71304;DHT22;59091;47.446;19.148;2022-09-17T09:36:40;16.88;59.21
71304;DHT22;59091;47.446;19.148;2022-09-17T09:39:25;16.92;58.81
71304;DHT22;59091;47.446;19.148;2022-09-17T09:42:28;17.11;58.17
71304;DHT22;59091;47.446;19.148;2022-09-17T09:45:00;17.27;58.13
71304;DHT22;59091;47.446;19.148;2022-09-17T09:47:48;17.27;56.93
71304;DHT22;59091;47.446;19.148;2022-09-17T09:53:12;17.39;56.60
71304;DHT22;59091;47.446;19.148;2022-09-17T09:56:23;17.43;56.60
71304;DHT22;59091;47.446;19.148;2022-09-17T09:58:49;17.46;56.45
71304;DHT22;59091;47.446;19.148;2022-09-17T10:01:16;17.35;56.09
71304;DHT22;59091;47.446;19.148;2022-09-17T10:03:45;17.36;58.10
71304;DHT22;59091;47.446;19.148;2022-09-17T10:06:12;17.35;56.22
71304;DHT22;59091;47.446;19.148;2022-09-17T10:11:28;17.62;56.74
71304;DHT22;59091;47.446;19.148;2022-09-17T10:14:14;17.69;56.87
71304;DHT22;59091;47.446;19.148;2022-09-17T10:16:40;17.71;57.01
71304;DHT22;59091;47.446;19.148;2022-09-17T10:21:36;17.62;56.36
71304;DHT22;59091;47.446;19.148;2022-09-17T10:24:17;17.39;56.20
71304;DHT22;59091;47.446;19.148;2022-09-17T10:26:46;17.40;56.55
71304;DHT22;59091;47.446;19.148;2022-09-17T10:29:15;17.37;56.32
71304;DHT22;59091;47.446;19.148;2022-09-17T10:31:49;17.39;56.11
71304;DHT22;59091;47.446;19.148;2022-09-17T10:34:26;17.32;55.59
71304;DHT22;59091;47.446;19.148;2022-09-17T10:36:53;17.57;55.83
71304;DHT22;59091;47.446;19.148;2022-09-17T10:42:05;17.51;55.02
71304;DHT22;59091;47.446;19.148;2022-09-17T10:44:37;17.70;55.81
71304;DHT22;59091;47.446;19.148;2022-09-17T10:47:39;17.78;55.57
71304;DHT22;59091;47.446;19.148;2022-09-17T10:50:15;17.98;55.79
71304;DHT22;59091;47.446;19.148;2022-09-17T10:52:47;17.88;54.78
71304;DHT22;59091;47.446;19.148;2022-09-17T11:04:09;17.56;52.97
71304;DHT22;59091;47.446;19.148;2022-09-17T11:11:10;17.35;51.66
71304;DHT22;59091;47.446;19.148;2022-09-17T11:13:52;17.14;52.11
71304;DHT22;59091;47.446;19.148;2022-09-17T11:16:44;17.05;54.32
71304;DHT22;59091;47.446;19.148;2022-09-17T11:19:21;17.04;52.56
71304;DHT22;59091;47.446;19.148;2022-09-17T11:22:00;17.12;52.59
71304;DHT22;59091;47.446;19.148;2022-09-17T11:30:19;16.89;51.20
71304;DHT22;59091;47.446;19.148;2022-09-17T11:35:26;17.16;58.06
71304;DHT22;59091;47.446;19.148;2022-09-17T11:40:57;17.12;49.82
71304;DHT22;59091;47.446;19.148;2022-09-17T11:43:33;17.01;49.72
71304;DHT22;59091;47.446;19.148;2022-09-17T11:46:11;16.82;50.41
71304;DHT22;59091;47.446;19.148;2022-09-17T11:52:01;16.48;51.19
71304;DHT22;59091;47.446;19.148;2022-09-17T11:54:39;16.43;50.10
71304;DHT22;59091;47.446;19.148;2022-09-17T11:57:19;16.38;49.98
71304;DHT22;59091;47.446;19.148;2022-09-17T12:05:17;16.54;50.20
71304;DHT22;59091;47.446;19.148;2022-09-17T12:07:53;16.54;50.27
71304;DHT22;59091;47.446;19.148;2022-09-17T12:13:01;16.45;50.88
71304;DHT22;59091;47.446;19.148;2022-09-17T12:15:29;16.53;50.62
71304;DHT22;59091;47.446;19.148;2022-09-17T12:18:26;16.38;50.40
71304;DHT22;59091;47.446;19.148;2022-09-17T12:20:55;16.43;50.77
71304;DHT22;59091;47.446;19.148;2022-09-17T12:29:28;16.04;51.35
71304;DHT22;59091;47.446;19.148;2022-09-17T12:32:46;16.04;51.55
71304;DHT22;59091;47.446;19.148;2022-09-17T12:59:17;16.69;51.87
71304;DHT22;59091;47.446;19.148;2022-09-17T13:01:57;16.69;51.77
71304;DHT22;59091;47.446;19.148;2022-09-17T13:05:06;16.81;52.38
71304;DHT22;59091;47.446;19.148;2022-09-17T13:10:49;16.54;52.33
71304;DHT22;59091;47.446;19.148;2022-09-17T13:16:10;16.16;54.22
71304;DHT22;59091;47.446;19.148;2022-09-17T13:21:48;16.02;54.36
71304;DHT22;59091;47.446;19.148;2022-09-17T13:24:20;16.04;55.18
71304;DHT22;59091;47.446;19.148;2022-09-17T13:26:49;15.89;55.23
71304;DHT22;59091;47.446;19.148;2022-09-17T13:32:09;15.83;55.69
71304;DHT22;59091;47.446;19.148;2022-09-17T13:34:54;15.56;56.55
71304;DHT22;59091;47.446;19.148;2022-09-17T13:37:20;15.45;56.65
71304;DHT22;59091;47.446;19.148;2022-09-17T13:39:50;15.51;57.24
71304;DHT22;59091;47.446;19.148;2022-09-17T13:42:22;15.61;56.90
71304;DHT22;59091;47.446;19.148;2022-09-17T13:45:05;15.52;57.19
71304;DHT22;59091;47.446;19.148;2022-09-17T13:47:33;15.65;57.39
71304;DHT22;59091;47.446;19.148;2022-09-17T13:50:02;15.67;57.21
71304;DHT22;59091;47.446;19.148;2022-09-17T13:52:48;15.66;57.65
71304;DHT22;59091;47.446;19.148;2022-09-17T13:57:59;15.62;57.44
71304;DHT22;59091;47.446;19.148;2022-09-17T14:13:55;15.42;58.74
71304;DHT22;59091;47.446;19.148;2022-09-17T14:17:03;15.32;58.89
71304;DHT22;59091;47.446;19.148;2022-09-17T14:22:45;15.25;59.06
71304;DHT22;59091;47.446;19.148;2022-09-17T14:25:15;15.34;59.08
71304;DHT22;59091;47.446;19.148;2022-09-17T14:30:17;15.49;58.42
71304;DHT22;59091;47.446;19.148;2022-09-17T14:33:06;15.42;58.19
71304;DHT22;59091;47.446;19.148;2022-09-17T14:35:42;15.45;58.21
71304;DHT22;59091;47.446;19.148;2022-09-17T14:38:12;15.41;58.07
71304;DHT22;59091;47.446;19.148;2022-09-17T14:40:44;15.58;57.85
71304;DHT22;59091;47.446;19.148;2022-09-17T14:43:17;15.39;58.24
71304;DHT22;59091;47.446;19.148;2022-09-17T14:48:33;15.31;58.44
71304;DHT22;59091;47.446;19.148;2022-09-17T14:53:46;15.58;58.41
71304;DHT22;59091;47.446;19.148;2022-09-17T14:56:14;15.58;57.89
71304;DHT22;59091;47.446;19.148;2022-09-17T14:58:45;15.49;57.59
71304;DHT22;59091;47.446;19.148;2022-09-17T15:01:27;15.51;57.44
71304;DHT22;59091;47.446;19.148;2022-09-17T15:06:36;15.46;59.08
71304;DHT22;59091;47.446;19.148;2022-09-17T15:09:02;15.38;58.55
71304;DHT22;59091;47.446;19.148;2022-09-17T15:11:30;15.01;58.84
71304;DHT22;59091;47.446;19.148;2022-09-17T15:13:57;15.01;58.84
71304;DHT22;59091;47.446;19.148;2022-09-17T15:16:25;15.15;60.74
71304;DHT22;59091;47.446;19.148;2022-09-17T15:21:38;14.95;59.86
71304;DHT22;59091;47.446;19.148;2022-09-17T15:27:13;15.01;59.65
71304;DHT22;59091;47.446;19.148;2022-09-17T15:29:44;14.91;60.40
71304;DHT22;59091;47.446;19.148;2022-09-17T15:32:11;14.77;60.02
71304;DHT22;59091;47.446;19.148;2022-09-17T15:34:38;14.81;59.85
71304;DHT22;59091;47.446;19.148;2022-09-17T15:37:09;14.77;60.38
71304;DHT22;59091;47.446;19.148;2022-09-17T15:39:41;14.79;60.93
71304;DHT22;59091;47.446;19.148;2022-09-17T15:44:48;14.69;61.02
71304;DHT22;59091;47.446;19.148;2022-09-17T15:47:34;14.80;61.47
71304;DHT22;59091;47.446;19.148;2022-09-17T15:50:48;14.77;61.95
71304;DHT22;59091;47.446;19.148;2022-09-17T15:53:24;14.67;61.31
71304;DHT22;59091;47.446;19.148;2022-09-17T16:08:57;14.69;63.61
71304;DHT22;59091;47.446;19.148;2022-09-17T16:11:25;14.85;62.81
71304;DHT22;59091;47.446;19.148;2022-09-17T16:13:53;14.76;62.33
71304;DHT22;59091;47.446;19.148;2022-09-17T16:16:24;14.77;62.51
71304;DHT22;59091;47.446;19.148;2022-09-17T16:18:50;14.74;62.87
71304;DHT22;59091;47.446;19.148;2022-09-17T16:21:17;14.67;62.72
71304;DHT22;59091;47.446;19.148;2022-09-17T16:23:44;14.62;63.31
71304;DHT22;59091;47.446;19.148;2022-09-17T16:26:14;14.60;63.75
71304;DHT22;59091;47.446;19.148;2022-09-17T16:28:40;14.66;63.51
71304;DHT22;59091;47.446;19.148;2022-09-17T16:31:06;14.47;63.46
71304;DHT22;59091;47.446;19.148;2022-09-17T16:33:32;14.46;63.53
71304;DHT22;59091;47.446;19.148;2022-09-17T16:35:58;14.49;64.40
71304;DHT22;59091;47.446;19.148;2022-09-17T16:38:24;14.39;64.84
71304;DHT22;59091;47.446;19.148;2022-09-17T16:40:50;14.42;64.84
71304;DHT22;59091;47.446;19.148;2022-09-17T16:43:16;14.42;66.08
71304;DHT22;59091;47.446;19.148;2022-09-17T16:45:42;14.19;66.22
71304;DHT22;59091;47.446;19.148;2022-09-17T16:48:08;14.21;66.46
71304;DHT22;59091;47.446;19.148;2022-09-17T16:50:33;14.29;66.75
71304;DHT22;59091;47.446;19.148;2022-09-17T16:53:00;14.26;66.75
71304;DHT22;59091;47.446;19.148;2022-09-17T16:55:25;14.16;66.15
71304;DHT22;59091;47.446;19.148;2022-09-17T16:57:51;14.25;67.39
71304;DHT22;59091;47.446;19.148;2022-09-17T17:00:18;14.32;67.23
71304;DHT22;59091;47.446;19.148;2022-09-17T17:02:53;14.19;67.42
71304;DHT22;59091;47.446;19.148;2022-09-17T17:05:19;14.09;67.63
71304;DHT22;59091;47.446;19.148;2022-09-17T17:07:44;14.19;67.73
71304;DHT22;59091;47.446;19.148;2022-09-17T17:10:10;14.12;67.73
71304;DHT22;59091;47.446;19.148;2022-09-17T17:12:36;14.15;67.79
71304;DHT22;59091;47.446;19.148;2022-09-17T17:15:02;14.08;68.15
71304;DHT22;59091;47.446;19.148;2022-09-17T17:17:30;13.97;68.21
71304;DHT22;59091;47.446;19.148;2022-09-17T17:19:57;14.09;67.90
71304;DHT22;59091;47.446;19.148;2022-09-17T17:22:22;14.11;68.15
71304;DHT22;59091;47.446;19.148;2022-09-17T17:24:48;13.99;68.61
71304;DHT22;59091;47.446;19.148;2022-09-17T17:27:13;13.86;68.96
71304;DHT22;59091;47.446;19.148;2022-09-17T17:29:39;13.99;68.49
71304;DHT22;59091;47.446;19.148;2022-09-17T17:32:05;13.92;68.82
71304;DHT22;59091;47.446;19.148;2022-09-17T17:34:31;13.83;69.59
71304;DHT22;59091;47.446;19.148;2022-09-17T17:36:57;13.97;69.78
71304;DHT22;59091;47.446;19.148;2022-09-17T17:39:22;13.94;69.09
71304;DHT22;59091;47.446;19.148;2022-09-17T17:41:48;14.02;69.10
71304;DHT22;59091;47.446;19.148;2022-09-17T17:44:13;14.01;69.89
71304;DHT22;59091;47.446;19.148;2022-09-17T17:46:39;14.08;69.37
71304;DHT22;59091;47.446;19.148;2022-09-17T17:49:05;13.94;70.21
71304;DHT22;59091;47.446;19.148;2022-09-17T17:51:32;13.85;70.52
71304;DHT22;59091;47.446;19.148;2022-09-17T17:53:57;13.91;70.70
71304;DHT22;59091;47.446;19.148;2022-09-17T17:56:23;13.88;70.20
71304;DHT22;59091;47.446;19.148;2022-09-17T17:58:53;13.86;70.28
71304;DHT22;59091;47.446;19.148;2022-09-17T18:01:23;13.92;70.43
71304;DHT22;59091;47.446;19.148;2022-09-17T18:03:49;13.70;70.78
71304;DHT22;59091;47.446;19.148;2022-09-17T18:06:15;13.70;71.32
71304;DHT22;59091;47.446;19.148;2022-09-17T18:08:41;13.79;71.14
71304;DHT22;59091;47.446;19.148;2022-09-17T18:11:08;13.77;71.55
71304;DHT22;59091;47.446;19.148;2022-09-17T18:13:36;13.83;71.51
71304;DHT22;59091;47.446;19.148;2022-09-17T18:16:03;13.74;71.11
71304;DHT22;59091;47.446;19.148;2022-09-17T18:18:40;13.79;71.00
71304;DHT22;59091;47.446;19.148;2022-09-17T18:21:07;13.83;70.88
71304;DHT22;59091;47.446;19.148;2022-09-17T18:23:35;13.81;71.29
71304;DHT22;59091;47.446;19.148;2022-09-17T18:26:02;13.61;71.51
71304;DHT22;59091;47.446;19.148;2022-09-17T18:28:28;13.61;71.57
71304;DHT22;59091;47.446;19.148;2022-09-17T18:30:54;13.71;71.96
71304;DHT22;59091;47.446;19.148;2022-09-17T18:33:22;13.70;71.65
71304;DHT22;59091;47.446;19.148;2022-09-17T18:35:50;13.70;72.15
71304;DHT22;59091;47.446;19.148;2022-09-17T18:38:16;13.70;71.73
71304;DHT22;59091;47.446;19.148;2022-09-17T18:40:42;13.75;71.92
71304;DHT22;59091;47.446;19.148;2022-09-17T18:43:08;13.79;72.29
71304;DHT22;59091;47.446;19.148;2022-09-17T18:45:34;13.64;72.55
71304;DHT22;59091;47.446;19.148;2022-09-17T18:48:01;13.70;72.57
71304;DHT22;59091;47.446;19.148;2022-09-17T18:50:26;13.74;72.01
71304;DHT22;59091;47.446;19.148;2022-09-17T18:52:51;13.65;72.68
71304;DHT22;59091;47.446;19.148;2022-09-17T18:55:17;13.57;72.72
71304;DHT22;59091;47.446;19.148;2022-09-17T18:57:42;13.48;71.87
71304;DHT22;59091;47.446;19.148;2022-09-17T19:00:08;13.40;73.40
71304;DHT22;59091;47.446;19.148;2022-09-17T19:02:36;13.46;72.48
71304;DHT22;59091;47.446;19.148;2022-09-17T19:05:02;13.43;73.46
71304;DHT22;59091;47.446;19.148;2022-09-17T19:07:28;13.41;73.01